createdAt,value
2022-08-01T00:00:37.697Z,3.13
2022-08-01T00:03:09.075Z,2.95
2022-08-01T00:05:36.041Z,2.85
2022-08-01T00:08:02.831Z,3.65
2022-08-01T00:10:29.738Z,4.80
2022-08-01T00:12:56.687Z,2.72
2022-08-01T00:15:23.471Z,5.47
2022-08-01T00:17:50.193Z,2.78
2022-08-01T00:20:17.162Z,3.45
2022-08-01T00:22:43.986Z,2.45
2022-08-01T00:25:11.036Z,3.47
2022-08-01T00:27:38.130Z,3.10
2022-08-01T00:30:13.197Z,2.42
2022-08-01T00:32:42.809Z,3.20
2022-08-01T00:35:10.028Z,3.30
2022-08-01T00:37:36.763Z,2.97
2022-08-01T00:40:04.958Z,2.75
2022-08-01T00:42:31.837Z,3.35
2022-08-01T00:44:58.621Z,3.15
2022-08-01T00:47:25.546Z,4.40
2022-08-01T00:49:52.383Z,5.15
2022-08-01T00:52:19.219Z,4.70
2022-08-01T00:54:46.506Z,3.28
2022-08-01T00:57:15.193Z,3.05
2022-08-01T00:59:42.419Z,3.17
2022-08-01T01:02:15.505Z,3.20
2022-08-01T01:04:43.818Z,3.97
2022-08-01T01:07:28.596Z,3.17
2022-08-01T01:10:01.600Z,4.22
2022-08-01T01:12:42.794Z,4.07
2022-08-01T01:15:17.924Z,4.45
2022-08-01T01:18:01.779Z,3.33
2022-08-01T01:20:33.140Z,5.40
2022-08-01T01:23:37.513Z,2.35
2022-08-01T01:26:22.201Z,3.88
2022-08-01T01:29:00.778Z,2.47
2022-08-01T01:31:28.621Z,3.92
2022-08-01T01:33:58.670Z,7.97
2022-08-01T01:36:28.180Z,2.92
2022-08-01T01:38:55.971Z,3.53
2022-08-01T01:41:24.190Z,2.90
2022-08-01T01:43:52.816Z,2.58
2022-08-01T01:46:24.557Z,3.15
2022-08-01T01:48:52.799Z,6.45
2022-08-01T01:51:23.199Z,7.07
2022-08-01T01:53:52.698Z,4.18
2022-08-01T01:56:21.249Z,3.20
2022-08-01T01:58:54.649Z,3.53
2022-08-01T02:04:10.475Z,4.00
2022-08-01T02:06:38.815Z,2.80
2022-08-01T02:09:07.236Z,5.65
2022-08-01T02:11:36.268Z,2.42
2022-08-01T02:14:04.672Z,3.60
2022-08-01T02:16:35.971Z,3.83
2022-08-01T02:19:04.328Z,3.63
2022-08-01T02:21:38.327Z,4.95
2022-08-01T02:24:37.843Z,5.47
2022-08-01T02:27:15.494Z,3.90
2022-08-01T02:29:48.117Z,5.30
2022-08-01T02:32:47.584Z,5.80
2022-08-01T02:35:27.454Z,4.70
2022-08-01T02:37:56.368Z,4.50
2022-08-01T02:40:24.329Z,4.35
2022-08-01T02:42:53.656Z,7.55
2022-08-01T02:45:23.527Z,7.85
2022-08-01T02:47:52.724Z,5.75
2022-08-01T02:50:21.214Z,6.07
2022-08-01T02:52:51.763Z,6.00
2022-08-01T02:55:20.725Z,4.68
2022-08-01T02:57:52.360Z,4.90
2022-08-01T03:00:25.872Z,5.80
2022-08-01T03:02:55.959Z,4.25
2022-08-01T03:05:24.950Z,6.63
2022-08-01T03:07:54.865Z,3.78
2022-08-01T03:10:22.192Z,6.85
2022-08-01T03:12:51.060Z,8.65
2022-08-01T03:15:19.850Z,5.68
2022-08-01T03:17:48.953Z,6.63
2022-08-01T03:20:17.578Z,10.35
2022-08-01T03:22:47.153Z,14.95
2022-08-01T03:25:16.224Z,12.50
2022-08-01T03:27:51.316Z,7.10
2022-08-01T03:30:18.576Z,9.50
2022-08-01T03:32:45.361Z,10.75
2022-08-01T03:35:12.154Z,9.88
2022-08-01T03:38:14.315Z,9.32
2022-08-01T03:40:39.635Z,6.80
2022-08-01T03:43:21.379Z,6.68
2022-08-01T03:45:52.413Z,6.38
2022-08-01T03:48:23.589Z,7.03
2022-08-01T03:50:53.021Z,4.15
2022-08-01T03:53:25.787Z,4.50
2022-08-01T03:55:55.107Z,3.75
2022-08-01T03:58:22.668Z,5.60
2022-08-01T04:00:50.174Z,4.05
2022-08-01T04:03:17.897Z,4.55
2022-08-01T04:05:44.957Z,3.88
2022-08-01T04:08:11.758Z,4.35
2022-08-01T04:10:39.376Z,4.57
2022-08-01T04:13:06.450Z,5.10
2022-08-01T04:15:33.305Z,6.75
2022-08-01T04:18:00.099Z,5.60
2022-08-01T04:20:27.102Z,4.03
2022-08-01T04:22:53.876Z,4.85
2022-08-01T04:25:29.159Z,5.40
2022-08-01T04:27:58.244Z,6.82
2022-08-01T04:30:28.056Z,4.05
2022-08-01T04:32:56.719Z,6.97
2022-08-01T04:36:01.630Z,4.57
2022-08-01T04:38:20.399Z,4.63
2022-08-01T04:40:47.869Z,7.15
2022-08-01T04:43:15.512Z,5.72
2022-08-01T04:45:44.774Z,6.05
2022-08-01T04:48:13.013Z,6.18
2022-08-01T04:50:42.908Z,5.63
2022-08-01T04:53:17.925Z,3.88
2022-08-01T04:55:47.033Z,4.75
2022-08-01T04:58:18.331Z,3.53
2022-08-01T05:00:46.187Z,4.20
2022-08-01T05:03:13.532Z,4.65
2022-08-01T05:05:40.296Z,4.63
2022-08-01T05:08:07.383Z,3.95
2022-08-01T05:10:34.771Z,3.60
2022-08-01T05:13:01.781Z,5.32
2022-08-01T05:15:28.566Z,4.20
2022-08-01T05:17:55.771Z,4.57
2022-08-01T05:20:22.595Z,3.92
2022-08-01T05:22:49.613Z,5.60
2022-08-01T05:25:20.394Z,3.55
2022-08-01T05:28:03.430Z,3.22
2022-08-01T05:30:30.497Z,3.80
2022-08-01T05:32:57.456Z,5.50
2022-08-01T05:35:24.276Z,4.93
2022-08-01T05:38:13.552Z,4.97
2022-08-01T05:40:41.804Z,4.45
2022-08-01T05:43:08.667Z,7.22
2022-08-01T05:45:35.656Z,3.70
2022-08-01T05:48:02.390Z,4.55
2022-08-01T05:50:29.167Z,6.82
2022-08-01T05:52:56.095Z,4.22
2022-08-01T05:55:22.856Z,4.78
2022-08-01T05:57:49.625Z,4.32
2022-08-01T06:00:17.177Z,4.60
2022-08-01T06:02:44.464Z,5.30
2022-08-01T06:05:13.540Z,3.60
2022-08-01T06:07:41.323Z,4.85
2022-08-01T06:10:10.220Z,5.35
2022-08-01T06:12:37.837Z,3.33
2022-08-01T06:15:06.832Z,3.80
2022-08-01T06:17:33.975Z,4.57
2022-08-01T06:20:00.860Z,4.30
2022-08-01T06:22:28.042Z,5.07
2022-08-01T06:24:54.780Z,4.95
2022-08-01T06:27:22.756Z,3.25
2022-08-01T06:29:53.441Z,3.70
2022-08-01T06:32:26.507Z,5.45
2022-08-01T06:34:55.291Z,3.20
2022-08-01T06:37:22.630Z,3.00
2022-08-01T06:39:50.535Z,2.78
2022-08-01T06:42:18.390Z,5.18
2022-08-01T06:44:45.584Z,4.13
2022-08-01T06:47:12.570Z,3.38
2022-08-01T06:49:39.707Z,4.28
2022-08-01T06:52:07.044Z,3.35
2022-08-01T06:54:34.215Z,3.20
2022-08-01T06:57:01.296Z,3.08
2022-08-01T06:59:28.152Z,4.60
2022-08-01T07:01:54.909Z,5.60
2022-08-01T07:04:21.993Z,3.47
2022-08-01T07:06:49.176Z,5.40
2022-08-01T07:09:15.928Z,2.80
2022-08-01T07:11:42.861Z,4.53
2022-08-01T07:14:09.610Z,2.85
2022-08-01T07:16:36.443Z,4.07
2022-08-01T07:19:03.465Z,4.85
2022-08-01T07:21:40.090Z,4.43
2022-08-01T07:24:13.572Z,5.55
2022-08-01T07:26:52.190Z,3.50
2022-08-01T07:29:27.950Z,4.10
2022-08-01T07:31:56.383Z,4.32
2022-08-01T07:34:24.293Z,2.63
2022-08-01T07:36:52.295Z,2.30
2022-08-01T07:39:19.283Z,2.78
2022-08-01T07:42:05.948Z,3.30
2022-08-01T07:44:33.071Z,4.53
2022-08-01T07:47:00.099Z,2.50
2022-08-01T07:49:26.917Z,5.05
2022-08-01T07:52:02.504Z,3.42
2022-08-01T07:54:34.371Z,3.10
2022-08-01T07:57:02.820Z,2.72
2022-08-01T07:59:29.684Z,2.85
2022-08-01T08:01:56.927Z,3.35
2022-08-01T08:04:23.795Z,3.92
2022-08-01T08:06:50.641Z,3.10
2022-08-01T08:09:18.254Z,3.28
2022-08-01T08:11:47.751Z,2.33
2022-08-01T08:14:16.349Z,2.58
2022-08-01T08:16:44.233Z,2.38
2022-08-01T08:19:12.082Z,4.68
2022-08-01T08:21:39.205Z,5.57
2022-08-01T08:24:26.363Z,4.70
2022-08-01T08:26:59.585Z,6.10
2022-08-01T08:29:27.471Z,3.03
2022-08-01T08:31:58.652Z,1.90
2022-08-01T08:34:26.855Z,6.55
2022-08-01T08:36:58.886Z,2.40
2022-08-01T08:39:26.707Z,4.65
2022-08-01T08:41:53.623Z,2.78
2022-08-01T08:44:23.705Z,3.42
2022-08-01T08:46:52.369Z,3.17
2022-08-01T08:49:22.062Z,4.18
2022-08-01T08:51:52.736Z,2.97
2022-08-01T08:54:29.086Z,2.53
2022-08-01T08:57:00.941Z,4.50
2022-08-01T08:59:29.276Z,3.05
2022-08-01T09:01:57.695Z,3.50
2022-08-01T09:04:27.075Z,3.13
2022-08-01T09:06:55.202Z,3.10
2022-08-01T09:09:23.156Z,2.53
2022-08-01T09:11:57.058Z,2.25
2022-08-01T09:14:28.067Z,4.25
2022-08-01T09:17:11.349Z,2.55
2022-08-01T09:19:42.139Z,3.60
2022-08-01T09:22:11.669Z,3.40
2022-08-01T09:24:40.901Z,2.58
2022-08-01T09:27:24.232Z,4.82
2022-08-01T09:30:00.923Z,2.67
2022-08-01T09:32:36.067Z,2.28
2022-08-01T09:35:29.911Z,2.45
2022-08-01T09:38:13.503Z,4.65
2022-08-01T09:40:59.112Z,4.38
2022-08-01T09:43:28.225Z,2.83
2022-08-01T09:45:58.100Z,2.90
2022-08-01T09:48:28.529Z,4.22
2022-08-01T09:51:03.839Z,3.30
2022-08-01T09:53:52.189Z,4.97
2022-08-01T09:56:21.621Z,4.13
2022-08-01T09:59:01.940Z,4.25
2022-08-01T10:01:49.664Z,4.90
2022-08-01T10:04:18.908Z,3.70
2022-08-01T10:06:50.622Z,3.65
2022-08-01T10:09:36.083Z,6.82
2022-08-01T10:12:08.726Z,2.40
2022-08-01T10:14:37.737Z,3.95
2022-08-01T10:17:18.529Z,2.33
2022-08-01T10:19:48.000Z,2.97
2022-08-01T10:22:19.256Z,3.42
2022-08-01T10:24:48.190Z,4.90
2022-08-01T10:27:24.510Z,3.65
2022-08-01T10:30:15.544Z,3.38
2022-08-01T10:32:50.834Z,3.70
2022-08-01T10:35:45.773Z,5.60
2022-08-01T10:38:10.727Z,3.40
2022-08-01T10:40:42.539Z,5.63
2022-08-01T10:43:11.895Z,3.75
2022-08-01T10:45:39.495Z,3.80
2022-08-01T10:48:31.192Z,3.60
2022-08-01T10:51:04.804Z,4.47
2022-08-01T10:53:54.200Z,3.83
2022-08-01T10:56:26.588Z,2.85
2022-08-01T10:59:06.026Z,3.22
2022-08-01T11:01:34.599Z,3.33
2022-08-01T11:04:17.794Z,3.30
2022-08-01T11:07:06.362Z,2.92
2022-08-01T11:09:49.554Z,2.15
2022-08-01T11:12:24.949Z,2.58
2022-08-01T11:15:02.394Z,2.72
2022-08-01T11:17:49.629Z,2.13
2022-08-01T11:20:31.312Z,2.55
2022-08-01T11:23:07.722Z,4.90
2022-08-01T11:26:03.493Z,2.33
2022-08-01T11:28:34.861Z,3.95
2022-08-01T11:31:10.978Z,6.68
2022-08-01T11:33:41.397Z,5.22
2022-08-01T11:36:11.060Z,5.45
2022-08-01T11:38:48.817Z,5.70
2022-08-01T11:41:18.759Z,4.30
2022-08-01T11:44:09.095Z,2.97
2022-08-01T11:46:51.400Z,2.60
2022-08-01T11:49:43.483Z,6.55
2022-08-01T11:52:17.021Z,2.58
2022-08-01T11:54:50.122Z,5.80
2022-08-01T11:57:24.267Z,5.55
2022-08-01T12:00:16.968Z,4.88
2022-08-01T12:05:24.591Z,2.92
2022-08-01T12:07:52.872Z,3.47
2022-08-01T12:10:21.991Z,3.60
2022-08-01T12:12:53.497Z,2.60
2022-08-01T12:15:23.668Z,3.20
2022-08-01T12:17:59.908Z,3.25
2022-08-01T12:20:33.867Z,4.85
2022-08-01T12:23:03.470Z,2.67
2022-08-01T12:25:30.679Z,3.30
2022-08-01T12:28:02.475Z,4.05
2022-08-01T12:30:31.853Z,3.50
2022-08-01T12:32:59.237Z,2.88
2022-08-01T12:35:28.034Z,4.93
2022-08-01T12:38:01.459Z,5.00
2022-08-01T12:40:31.005Z,3.10
2022-08-01T12:43:03.447Z,5.15
2022-08-01T12:45:40.709Z,9.57
2022-08-01T12:48:21.473Z,5.47
2022-08-01T12:50:53.234Z,6.10
2022-08-01T12:53:21.802Z,2.90
2022-08-01T12:55:58.576Z,3.92
2022-08-01T12:58:35.758Z,5.22
2022-08-01T13:01:08.639Z,4.50
2022-08-01T13:06:11.066Z,3.17
2022-08-01T13:08:39.437Z,3.10
2022-08-01T13:11:15.554Z,3.15
2022-08-01T13:13:50.579Z,4.70
2022-08-01T13:16:34.262Z,3.83
2022-08-01T13:19:10.149Z,4.43
2022-08-01T13:21:54.468Z,3.15
2022-08-01T13:24:27.677Z,2.92
2022-08-01T13:26:59.459Z,4.03
2022-08-01T13:29:35.626Z,4.43
2022-08-01T13:32:28.561Z,2.88
2022-08-01T13:35:10.542Z,2.42
2022-08-01T13:37:38.998Z,2.85
2022-08-01T13:40:08.411Z,3.90
2022-08-01T13:42:35.246Z,2.17
2022-08-01T13:45:02.958Z,2.40
2022-08-01T13:47:32.582Z,2.13
2022-08-01T13:50:04.034Z,2.90
2022-08-01T13:52:31.791Z,1.95
2022-08-01T13:54:59.721Z,2.08
2022-08-01T13:57:26.807Z,2.58
2022-08-01T14:00:09.593Z,4.82
2022-08-01T14:02:36.573Z,2.40
2022-08-01T14:05:03.754Z,6.60
2022-08-01T14:07:30.723Z,3.33
2022-08-01T14:10:18.256Z,4.63
2022-08-01T14:12:45.799Z,3.30
2022-08-01T14:15:18.196Z,3.90
2022-08-01T14:20:34.839Z,4.55
2022-08-01T14:23:02.010Z,3.05
2022-08-01T14:26:01.428Z,2.47
2022-08-01T14:28:16.272Z,2.38
2022-08-01T14:30:43.723Z,2.53
2022-08-01T14:33:11.927Z,2.72
2022-08-01T14:36:05.650Z,2.45
2022-08-01T14:38:33.397Z,6.85
2022-08-01T14:41:03.708Z,2.20
2022-08-01T14:43:33.593Z,3.88
2022-08-01T14:46:02.061Z,2.47
2022-08-01T14:48:30.106Z,4.43
2022-08-01T14:50:58.631Z,4.35
2022-08-01T14:53:25.935Z,2.53
2022-08-01T14:55:52.812Z,5.13
2022-08-01T14:58:19.888Z,2.40
2022-08-01T15:00:47.078Z,2.05
2022-08-01T15:03:13.991Z,2.78
2022-08-01T15:05:41.014Z,3.38
2022-08-01T15:08:07.776Z,1.55
2022-08-01T15:10:34.601Z,4.40
2022-08-01T15:13:02.533Z,4.00
2022-08-01T15:15:30.032Z,2.40
2022-08-01T15:17:57.256Z,3.28
2022-08-01T15:20:24.857Z,2.75
2022-08-01T15:22:51.718Z,1.98
2022-08-01T15:25:18.506Z,3.03
2022-08-01T15:27:45.508Z,3.53
2022-08-01T15:30:12.772Z,3.55
2022-08-01T15:32:39.536Z,4.05
2022-08-01T15:35:07.903Z,2.28
2022-08-01T15:37:37.347Z,1.58
2022-08-01T15:40:06.971Z,3.08
2022-08-01T15:42:33.983Z,1.92
2022-08-01T15:45:01.157Z,1.98
2022-08-01T15:47:28.014Z,1.60
2022-08-01T15:49:56.758Z,2.95
2022-08-01T15:52:23.492Z,1.80
2022-08-01T15:54:58.927Z,1.83
2022-08-01T15:57:25.708Z,2.58
2022-08-01T15:59:52.546Z,1.67
2022-08-01T16:02:19.676Z,2.63
2022-08-01T16:04:46.550Z,1.75
2022-08-01T16:07:14.450Z,2.25
2022-08-01T16:09:41.452Z,2.13
2022-08-01T16:12:10.181Z,2.83
2022-08-01T16:14:37.077Z,2.15
2022-08-01T16:17:04.084Z,2.95
2022-08-01T16:19:30.985Z,1.90
2022-08-01T16:21:57.881Z,2.67
2022-08-01T16:24:29.064Z,2.53
2022-08-01T16:26:55.963Z,2.55
2022-08-01T16:29:22.841Z,3.13
2022-08-01T16:32:00.396Z,5.50
2022-08-01T16:34:36.678Z,1.88
2022-08-01T16:37:04.243Z,5.95
2022-08-01T16:39:35.220Z,5.25
2022-08-01T16:42:02.032Z,2.83
2022-08-01T16:44:34.337Z,2.88
2022-08-01T16:47:03.602Z,5.05
2022-08-01T16:49:32.072Z,2.47
2022-08-01T16:51:59.134Z,2.92
2022-08-01T16:54:26.576Z,6.97
2022-08-01T16:56:58.084Z,2.30
2022-08-01T16:59:35.454Z,2.38
2022-08-01T17:02:09.966Z,2.42
2022-08-01T17:04:36.824Z,4.43
2022-08-01T17:07:03.885Z,3.08
2022-08-01T17:09:30.928Z,1.80
2022-08-01T17:11:57.657Z,4.13
2022-08-01T17:14:24.422Z,3.17
2022-08-01T17:16:51.440Z,1.52
2022-08-01T17:19:18.257Z,2.88
2022-08-01T17:21:45.585Z,3.38
2022-08-01T17:24:16.697Z,2.08
2022-08-01T17:26:43.588Z,2.40
2022-08-01T17:29:13.386Z,4.75
2022-08-01T17:31:40.489Z,3.88
2022-08-01T17:34:07.216Z,4.88
2022-08-01T17:36:34.125Z,2.30
2022-08-01T17:39:02.781Z,3.90
2022-08-01T17:41:29.553Z,3.00
2022-08-01T17:43:56.408Z,2.60
2022-08-01T17:46:23.464Z,2.47
2022-08-01T17:48:50.286Z,3.00
2022-08-01T17:51:22.448Z,4.18
2022-08-01T17:56:25.935Z,2.85
2022-08-01T17:58:53.433Z,4.40
2022-08-01T18:01:21.529Z,4.13
2022-08-01T18:03:49.003Z,3.63
2022-08-01T18:06:23.102Z,3.70
2022-08-01T18:08:55.260Z,2.97
2022-08-01T18:11:23.038Z,3.80
2022-08-01T18:13:51.631Z,3.58
2022-08-01T18:16:19.220Z,5.05
2022-08-01T18:18:46.388Z,2.65
2022-08-01T18:21:13.234Z,5.00
2022-08-01T18:23:40.242Z,4.22
2022-08-01T18:26:11.323Z,3.67
2022-08-01T18:28:46.493Z,4.28
2022-08-01T18:31:16.872Z,3.30
2022-08-01T18:33:44.017Z,3.08
2022-08-01T18:36:18.356Z,5.70
2022-08-01T18:38:58.803Z,4.43
2022-08-01T18:41:25.865Z,4.80
2022-08-01T18:44:03.826Z,3.80
2022-08-01T18:46:34.457Z,4.55
2022-08-01T18:49:01.378Z,4.43
2022-08-01T18:51:28.635Z,4.78
2022-08-01T18:53:57.677Z,3.58
2022-08-01T18:56:24.680Z,8.23
2022-08-01T18:58:52.707Z,4.35
2022-08-01T19:01:19.808Z,7.35
2022-08-01T19:03:47.112Z,4.63
2022-08-01T19:06:14.392Z,3.35
2022-08-01T19:08:41.792Z,4.85
2022-08-01T19:11:08.574Z,5.40
2022-08-01T19:13:35.531Z,6.00
2022-08-01T19:16:02.528Z,6.15
2022-08-01T19:18:29.390Z,4.70
2022-08-01T19:20:56.172Z,4.47
2022-08-01T19:23:42.018Z,5.45
2022-08-01T19:26:12.726Z,6.68
2022-08-01T19:28:51.107Z,5.90
2022-08-01T19:31:23.216Z,5.18
2022-08-01T19:33:52.467Z,6.60
2022-08-01T19:36:20.556Z,5.10
2022-08-01T19:38:47.858Z,4.72
2022-08-01T19:41:16.844Z,5.20
2022-08-01T19:43:46.712Z,4.72
2022-08-01T19:46:18.042Z,4.70
2022-08-01T19:48:49.969Z,5.60
2022-08-01T19:51:22.035Z,6.65
2022-08-01T19:53:55.475Z,4.68
2022-08-01T19:56:26.148Z,5.47
2022-08-01T19:59:00.122Z,6.65
2022-08-01T20:01:27.548Z,5.10
2022-08-01T20:03:56.013Z,6.07
2022-08-01T20:06:24.554Z,3.95
2022-08-01T20:08:54.611Z,5.00
2022-08-01T20:11:23.388Z,5.22
2022-08-01T20:13:51.879Z,5.47
2022-08-01T20:16:19.069Z,4.03
2022-08-01T20:18:46.166Z,4.50
2022-08-01T20:21:14.321Z,4.80
2022-08-01T20:23:43.638Z,3.92
2022-08-01T20:26:12.896Z,5.85
2022-08-01T20:28:43.872Z,6.63
2022-08-01T20:31:11.264Z,4.78
2022-08-01T20:33:46.318Z,5.70
2022-08-01T20:36:24.965Z,7.05
2022-08-01T20:38:56.489Z,5.60
2022-08-01T20:41:28.556Z,7.18
2022-08-01T20:43:57.090Z,4.18
2022-08-01T20:46:28.841Z,5.97
2022-08-01T20:48:57.735Z,4.43
2022-08-01T20:51:26.398Z,4.38
2022-08-01T20:53:54.240Z,4.63
2022-08-01T20:56:36.936Z,2.97
2022-08-01T20:59:39.806Z,4.63
2022-08-01T21:02:30.383Z,3.75
2022-08-01T21:05:12.741Z,3.67
2022-08-01T21:07:53.749Z,3.90
2022-08-01T21:10:24.295Z,4.03
2022-08-01T21:13:06.156Z,7.75
2022-08-01T21:15:59.870Z,4.18
2022-08-01T21:19:03.611Z,4.90
2022-08-01T21:21:36.271Z,5.50
2022-08-01T21:24:10.180Z,6.90
2022-08-01T21:26:37.146Z,4.18
2022-08-01T21:29:06.807Z,7.03
2022-08-01T21:31:40.507Z,6.68
2022-08-01T21:34:09.191Z,4.13
2022-08-01T21:36:36.937Z,4.43
2022-08-01T21:39:06.371Z,4.93
2022-08-01T21:41:56.205Z,7.32
2022-08-01T21:44:28.535Z,4.30
2022-08-01T21:47:00.256Z,7.28
2022-08-01T21:49:27.719Z,11.57
2022-08-01T21:52:05.265Z,6.53
2022-08-01T21:54:57.523Z,5.50
2022-08-01T21:57:32.417Z,4.88
2022-08-01T22:00:08.593Z,15.02
2022-08-01T22:02:39.242Z,6.50
2022-08-01T22:05:09.472Z,12.43
2022-08-01T22:08:02.930Z,14.57
2022-08-01T22:10:31.397Z,6.13
2022-08-01T22:12:58.451Z,12.38
2022-08-01T22:15:45.071Z,21.00
2022-08-01T22:18:12.616Z,11.65
2022-08-01T22:20:40.101Z,17.27
2022-08-01T22:23:07.023Z,10.30
2022-08-01T22:25:34.301Z,10.23
2022-08-01T22:28:02.803Z,18.25
2022-08-01T22:30:41.477Z,9.95
2022-08-01T22:33:16.345Z,8.85
2022-08-01T22:35:46.935Z,4.88
2022-08-01T22:38:16.736Z,7.82
2022-08-01T22:40:49.142Z,7.57
2022-08-01T22:43:30.459Z,8.07
2022-08-01T22:46:15.951Z,6.05
2022-08-01T22:48:49.668Z,7.57
2022-08-01T22:51:34.304Z,10.75
2022-08-01T22:54:14.438Z,10.00
2022-08-01T22:56:50.703Z,7.32
2022-08-01T22:59:23.576Z,8.73
2022-08-01T23:01:51.217Z,7.40
2022-08-01T23:04:48.541Z,6.35
2022-08-01T23:07:31.902Z,6.95
2022-08-01T23:09:59.012Z,7.63
2022-08-01T23:12:27.205Z,8.05
2022-08-01T23:14:56.099Z,5.38
2022-08-01T23:17:26.527Z,7.03
2022-08-01T23:20:04.419Z,5.75
2022-08-01T23:22:34.378Z,4.85
2022-08-01T23:25:06.042Z,6.00
2022-08-01T23:27:55.679Z,9.40
2022-08-01T23:30:25.689Z,7.53
2022-08-01T23:32:52.993Z,5.30
2022-08-01T23:35:19.937Z,4.97
2022-08-01T23:37:46.954Z,6.05
2022-08-01T23:40:13.938Z,5.80
2022-08-01T23:42:40.850Z,6.38
2022-08-01T23:45:08.232Z,6.18
2022-08-01T23:47:35.259Z,5.03
2022-08-01T23:50:02.176Z,4.82
2022-08-01T23:52:30.956Z,7.22
2022-08-01T23:55:03.356Z,5.32
2022-08-01T23:57:41.976Z,4.13
